createdAt,value
2018-09-06T00:00:53.943Z,16.40
2018-09-06T00:03:28.593Z,16.50
2018-09-06T00:06:03.303Z,16.50
2018-09-06T00:08:37.851Z,16.50
2018-09-06T00:11:12.787Z,16.40
2018-09-06T00:13:47.479Z,16.30
2018-09-06T00:16:22.080Z,16.30
2018-09-06T00:18:57.359Z,16.40
2018-09-06T00:21:32.081Z,16.30
2018-09-06T00:24:06.761Z,16.30
2018-09-06T00:26:41.384Z,16.30
2018-09-06T00:29:16.082Z,16.30
2018-09-06T00:31:50.891Z,16.30
2018-09-06T00:34:25.536Z,16.20
2018-09-06T00:37:00.246Z,16.20
2018-09-06T00:39:34.871Z,16.10
2018-09-06T00:42:09.591Z,16.20
2018-09-06T00:44:44.390Z,16.20
2018-09-06T00:47:18.937Z,16.10
2018-09-06T00:49:53.909Z,16.10
2018-09-06T00:52:28.626Z,16.10
2018-09-06T00:55:03.326Z,16.10
2018-09-06T00:57:38.011Z,16.00
2018-09-06T01:00:12.714Z,16.00
2018-09-06T01:02:47.774Z,16.10
2018-09-06T01:05:22.380Z,16.10
2018-09-06T01:07:57.158Z,16.10
2018-09-06T01:10:31.695Z,16.10
2018-09-06T01:13:06.325Z,16.10
2018-09-06T01:15:40.886Z,16.10
2018-09-06T01:18:15.447Z,16.00
2018-09-06T01:20:50.202Z,16.00
2018-09-06T01:23:24.789Z,16.00
2018-09-06T01:25:59.465Z,16.00
2018-09-06T01:28:34.044Z,16.00
2018-09-06T01:31:08.799Z,15.90
2018-09-06T01:33:43.349Z,16.00
2018-09-06T01:36:23.243Z,15.90
2018-09-06T01:38:58.041Z,16.00
2018-09-06T01:41:32.712Z,16.00
2018-09-06T01:44:07.546Z,16.00
2018-09-06T01:46:42.236Z,16.00
2018-09-06T01:49:16.943Z,16.00
2018-09-06T01:51:51.978Z,16.00
2018-09-06T01:54:26.701Z,16.00
2018-09-06T01:57:01.185Z,16.00
2018-09-06T01:59:39.126Z,16.00
2018-09-06T02:02:13.926Z,15.90
2018-09-06T02:04:48.655Z,15.90
2018-09-06T02:07:23.371Z,15.90
2018-09-06T02:09:58.101Z,16.00
2018-09-06T02:12:32.754Z,16.00
2018-09-06T02:15:07.494Z,15.90
2018-09-06T02:17:42.105Z,15.90
2018-09-06T02:20:16.643Z,15.90
2018-09-06T02:22:51.157Z,15.90
2018-09-06T02:25:25.907Z,16.00
2018-09-06T02:28:00.801Z,16.10
2018-09-06T02:30:35.515Z,16.20
2018-09-06T02:33:10.319Z,16.10
2018-09-06T02:35:45.053Z,16.00
2018-09-06T02:38:19.531Z,16.00
2018-09-06T02:40:54.099Z,15.90
2018-09-06T02:43:29.057Z,15.90
2018-09-06T02:46:03.742Z,15.90
2018-09-06T02:48:41.298Z,15.90
2018-09-06T02:51:19.815Z,15.80
2018-09-06T02:53:54.782Z,15.80
2018-09-06T02:56:29.463Z,15.80
2018-09-06T02:59:04.093Z,16.00
2018-09-06T03:01:38.844Z,16.00
2018-09-06T03:04:13.371Z,15.90
2018-09-06T03:06:48.066Z,15.90
2018-09-06T03:09:23.206Z,15.80
2018-09-06T03:12:00.847Z,15.80
2018-09-06T03:14:35.338Z,15.70
2018-09-06T03:17:09.934Z,15.80
2018-09-06T03:19:38.996Z,15.70
2018-09-06T03:22:08.095Z,15.70
2018-09-06T03:24:37.154Z,15.60
2018-09-06T03:27:06.228Z,15.60
2018-09-06T03:29:35.297Z,15.50
2018-09-06T03:32:04.326Z,15.50
2018-09-06T03:34:33.350Z,15.60
2018-09-06T03:37:02.414Z,15.60
2018-09-06T03:39:31.491Z,15.50
2018-09-06T03:42:00.855Z,15.50
2018-09-06T03:44:29.868Z,15.50
2018-09-06T03:46:58.937Z,15.50
2018-09-06T03:49:28.008Z,15.40
2018-09-06T03:51:57.107Z,15.40
2018-09-06T03:54:26.126Z,15.30
2018-09-06T03:56:55.203Z,15.30
2018-09-06T03:59:24.278Z,15.30
2018-09-06T04:01:53.319Z,15.40
2018-09-06T04:04:22.664Z,15.50
2018-09-06T04:06:51.723Z,15.50
2018-09-06T04:09:20.783Z,15.60
2018-09-06T04:11:49.909Z,15.60
2018-09-06T04:14:18.968Z,15.70
2018-09-06T04:16:47.986Z,15.70
2018-09-06T04:19:17.200Z,15.60
2018-09-06T04:21:46.211Z,15.60
2018-09-06T04:24:15.293Z,15.60
2018-09-06T04:26:44.619Z,15.50
2018-09-06T04:29:13.651Z,15.50
2018-09-06T04:31:42.694Z,15.40
2018-09-06T04:34:11.753Z,15.40
2018-09-06T04:36:40.971Z,15.30
2018-09-06T04:39:11.439Z,15.20
2018-09-06T04:41:40.798Z,15.20
2018-09-06T04:44:09.854Z,15.00
2018-09-06T04:46:38.844Z,15.00
2018-09-06T04:49:07.919Z,14.90
2018-09-06T04:51:36.923Z,14.90
2018-09-06T04:54:06.034Z,14.80
2018-09-06T04:56:35.041Z,14.80
2018-09-06T04:59:04.126Z,14.80
2018-09-06T05:01:33.263Z,14.70
2018-09-06T05:04:02.336Z,14.70
2018-09-06T05:06:31.393Z,14.70
2018-09-06T05:09:00.378Z,14.70
2018-09-06T05:11:29.493Z,14.70
2018-09-06T05:13:58.494Z,14.80
2018-09-06T05:16:27.522Z,14.80
2018-09-06T05:18:56.568Z,15.00
2018-09-06T05:21:25.683Z,15.00
2018-09-06T05:23:55.144Z,15.10
2018-09-06T05:26:24.249Z,15.20
2018-09-06T05:28:53.398Z,15.20
2018-09-06T05:31:22.467Z,15.20
2018-09-06T05:33:51.537Z,15.20
2018-09-06T05:36:20.751Z,15.20
2018-09-06T05:38:49.787Z,15.20
2018-09-06T05:41:18.887Z,15.30
2018-09-06T05:43:47.918Z,15.30
2018-09-06T05:46:17.036Z,15.30
2018-09-06T05:48:46.110Z,15.40
2018-09-06T05:51:15.499Z,15.50
2018-09-06T05:53:44.520Z,15.60
2018-09-06T05:56:13.588Z,15.60
2018-09-06T05:58:42.758Z,15.80
2018-09-06T06:01:11.867Z,15.90
2018-09-06T06:03:40.938Z,16.00
2018-09-06T06:06:09.967Z,16.00
2018-09-06T06:08:44.964Z,16.10
2018-09-06T06:11:14.114Z,16.00
2018-09-06T06:13:43.131Z,16.00
2018-09-06T06:16:13.226Z,16.00
2018-09-06T06:18:42.263Z,16.00
2018-09-06T06:21:11.802Z,16.00
2018-09-06T06:23:41.223Z,16.00
2018-09-06T06:26:10.298Z,16.10
2018-09-06T06:28:39.342Z,16.20
2018-09-06T06:31:08.536Z,16.30
2018-09-06T06:33:37.619Z,16.30
2018-09-06T06:36:06.802Z,16.40
2018-09-06T06:38:36.055Z,16.50
2018-09-06T06:41:05.134Z,16.60
2018-09-06T06:43:34.167Z,16.70
2018-09-06T06:46:03.251Z,16.80
2018-09-06T06:48:32.283Z,17.00
2018-09-06T06:51:01.371Z,17.10
2018-09-06T06:53:30.519Z,17.20
2018-09-06T06:55:59.595Z,17.30
2018-09-06T06:58:28.656Z,17.40
2018-09-06T07:00:57.727Z,17.60
2018-09-06T07:03:26.687Z,17.70
2018-09-06T07:05:55.735Z,17.80
2018-09-06T07:08:25.124Z,17.80
2018-09-06T07:10:54.139Z,17.90
2018-09-06T07:13:23.144Z,18.00
2018-09-06T07:15:52.242Z,18.20
2018-09-06T07:18:21.306Z,18.30
2018-09-06T07:20:50.360Z,18.20
2018-09-06T07:23:19.704Z,18.20
2018-09-06T07:25:48.701Z,18.40
2018-09-06T07:28:17.738Z,18.50
2018-09-06T07:30:46.787Z,18.70
2018-09-06T07:33:15.842Z,18.80
2018-09-06T07:35:44.890Z,19.10
2018-09-06T07:38:13.919Z,19.50
2018-09-06T07:40:42.969Z,20.10
2018-09-06T07:43:11.986Z,20.80
2018-09-06T07:45:41.367Z,21.30
2018-09-06T07:48:10.394Z,21.70
2018-09-06T07:50:39.411Z,21.80
2018-09-06T07:53:08.499Z,22.10
2018-09-06T07:55:37.781Z,22.30
2018-09-06T07:58:06.847Z,22.50
2018-09-06T08:00:39.614Z,22.70
2018-09-06T08:03:09.031Z,22.90
2018-09-06T08:05:38.182Z,22.90
2018-09-06T08:08:07.298Z,22.90
2018-09-06T08:10:36.429Z,23.40
2018-09-06T08:13:05.527Z,24.70
2018-09-06T08:15:34.674Z,25.40
2018-09-06T08:18:03.771Z,25.90
2018-09-06T08:20:33.119Z,27.00
2018-09-06T08:23:02.525Z,27.20
2018-09-06T08:25:32.009Z,27.30
2018-09-06T08:28:01.106Z,28.20
2018-09-06T08:30:31.125Z,28.20
2018-09-06T08:33:00.175Z,28.10
2018-09-06T08:35:29.368Z,28.50
2018-09-06T08:37:58.459Z,28.30
2018-09-06T08:40:27.863Z,29.10
2018-09-06T08:42:56.892Z,30.20
2018-09-06T08:45:25.908Z,30.20
2018-09-06T08:47:55.056Z,30.30
2018-09-06T08:50:24.058Z,30.30
2018-09-06T08:52:53.140Z,30.50
2018-09-06T08:55:22.234Z,31.10
2018-09-06T08:57:51.318Z,31.50
2018-09-06T09:00:20.427Z,30.80
2018-09-06T09:02:49.666Z,31.20
2018-09-06T09:05:18.861Z,32.00
2018-09-06T09:07:47.951Z,31.50
2018-09-06T09:10:16.997Z,30.90
2018-09-06T09:12:46.914Z,28.80
2018-09-06T09:15:16.009Z,28.40
2018-09-06T09:17:45.766Z,30.90
2018-09-06T09:20:14.863Z,29.80
2018-09-06T09:22:44.491Z,29.50
2018-09-06T09:25:13.622Z,30.60
2018-09-06T09:27:42.863Z,27.90
2018-09-06T09:30:12.074Z,28.80
2018-09-06T09:32:41.074Z,28.50
2018-09-06T09:35:10.195Z,28.50
2018-09-06T09:37:39.274Z,29.20
2018-09-06T09:40:08.347Z,28.80
2018-09-06T09:42:37.404Z,27.30
2018-09-06T09:45:06.514Z,27.10
2018-09-06T09:50:03.804Z,27.10
2018-09-06T09:52:32.883Z,27.50
2018-09-06T09:55:01.977Z,27.50
2018-09-06T09:57:31.138Z,28.10
2018-09-06T10:00:00.274Z,27.00
2018-09-06T10:02:34.635Z,26.50
2018-09-06T10:05:08.905Z,25.90
2018-09-06T10:07:43.339Z,25.30
2018-09-06T10:10:12.435Z,24.90
2018-09-06T10:12:41.502Z,24.90
2018-09-06T10:15:10.531Z,25.30
2018-09-06T10:17:39.910Z,25.70
2018-09-06T10:20:08.930Z,25.80
2018-09-06T10:22:38.116Z,25.90
2018-09-06T10:25:07.162Z,26.70
2018-09-06T10:27:36.514Z,27.60
2018-09-06T10:30:06.390Z,27.40
2018-09-06T10:32:35.570Z,27.80
2018-09-06T10:35:04.688Z,27.60
2018-09-06T10:37:33.766Z,26.70
2018-09-06T10:40:03.001Z,26.40
2018-09-06T10:42:31.971Z,26.40
2018-09-06T10:45:01.066Z,26.10
2018-09-06T10:47:30.115Z,26.70
2018-09-06T10:49:59.183Z,27.10
2018-09-06T10:52:28.214Z,27.30
2018-09-06T10:54:57.282Z,27.00
2018-09-06T10:57:26.411Z,26.70
2018-09-06T10:59:55.731Z,26.70
2018-09-06T11:02:25.238Z,26.30
2018-09-06T11:04:54.687Z,26.20
2018-09-06T11:07:23.814Z,26.30
2018-09-06T11:09:54.804Z,26.30
2018-09-06T11:12:23.939Z,26.40
2018-09-06T11:14:53.123Z,26.70
2018-09-06T11:17:22.111Z,26.70
2018-09-06T11:19:51.227Z,26.90
2018-09-06T11:22:20.435Z,26.40
2018-09-06T11:24:49.415Z,26.40
2018-09-06T11:27:18.485Z,25.60
2018-09-06T11:29:47.562Z,25.50
2018-09-06T11:32:16.715Z,25.60
2018-09-06T11:34:45.774Z,26.20
2018-09-06T11:37:14.836Z,26.40
2018-09-06T11:39:44.054Z,26.30
2018-09-06T11:42:13.289Z,25.90
2018-09-06T11:44:42.350Z,25.20
2018-09-06T11:47:11.769Z,25.40
2018-09-06T11:49:40.790Z,25.50
2018-09-06T11:52:09.978Z,26.40
2018-09-06T11:54:39.078Z,26.90
2018-09-06T11:57:08.112Z,27.00
2018-09-06T11:59:37.155Z,27.10
2018-09-06T12:02:06.376Z,27.00
2018-09-06T12:04:35.582Z,26.90
2018-09-06T12:07:04.708Z,26.50
2018-09-06T12:09:33.782Z,26.40
2018-09-06T12:12:02.858Z,26.50
2018-09-06T12:14:31.957Z,26.70
2018-09-06T12:17:01.875Z,27.30
2018-09-06T12:19:30.969Z,27.50
2018-09-06T12:22:00.562Z,27.00
2018-09-06T12:24:29.863Z,27.00
2018-09-06T12:26:58.933Z,26.90
2018-09-06T12:29:28.014Z,27.10
2018-09-06T12:31:57.220Z,26.40
2018-09-06T12:34:26.318Z,26.50
2018-09-06T12:36:55.451Z,26.90
2018-09-06T12:39:24.603Z,26.30
2018-09-06T12:41:53.840Z,26.20
2018-09-06T12:44:22.956Z,26.60
2018-09-06T12:46:52.022Z,27.00
2018-09-06T12:49:21.771Z,27.70
2018-09-06T12:51:50.832Z,27.30
2018-09-06T12:54:19.952Z,27.40
2018-09-06T12:56:49.024Z,27.60
2018-09-06T12:59:18.051Z,27.60
2018-09-06T13:01:47.128Z,27.60
2018-09-06T13:04:16.143Z,27.90
2018-09-06T13:06:45.287Z,27.30
2018-09-06T13:09:14.335Z,27.10
2018-09-06T13:11:43.437Z,26.80
2018-09-06T13:14:12.506Z,26.60
2018-09-06T13:16:41.550Z,26.30
2018-09-06T13:19:10.601Z,26.40
2018-09-06T13:21:39.618Z,26.40
2018-09-06T13:24:08.715Z,26.30
2018-09-06T13:26:37.790Z,26.00
2018-09-06T13:29:07.035Z,25.80
2018-09-06T13:31:36.226Z,25.90
2018-09-06T13:34:05.225Z,26.10
2018-09-06T13:36:34.808Z,25.90
2018-09-06T13:39:05.159Z,26.20
2018-09-06T13:41:34.211Z,26.00
2018-09-06T13:44:03.280Z,25.90
2018-09-06T13:46:32.409Z,25.80
2018-09-06T13:49:01.413Z,25.80
2018-09-06T13:51:30.719Z,25.60
2018-09-06T13:53:59.810Z,25.70
2018-09-06T13:56:28.803Z,25.30
2018-09-06T13:58:58.257Z,25.40
2018-09-06T14:01:27.401Z,25.50
2018-09-06T14:03:56.400Z,25.70
2018-09-06T14:06:25.482Z,25.60
2018-09-06T14:08:54.563Z,25.60
2018-09-06T14:11:23.678Z,25.70
2018-09-06T14:13:52.694Z,25.70
2018-09-06T14:16:21.870Z,25.90
2018-09-06T14:18:50.932Z,25.70
2018-09-06T14:21:20.025Z,25.80
2018-09-06T14:23:49.090Z,25.80
2018-09-06T14:26:18.479Z,25.80
2018-09-06T14:28:47.671Z,25.70
2018-09-06T14:31:16.768Z,25.70
2018-09-06T14:33:45.871Z,25.70
2018-09-06T14:36:15.180Z,25.60
2018-09-06T14:38:44.310Z,25.40
2018-09-06T14:41:14.335Z,25.20
2018-09-06T14:43:43.451Z,25.10
2018-09-06T14:46:12.481Z,25.00
2018-09-06T14:48:41.553Z,24.80
2018-09-06T14:51:10.557Z,24.50
2018-09-06T14:53:39.630Z,24.20
2018-09-06T14:56:09.134Z,24.00
2018-09-06T14:58:38.303Z,24.00
2018-09-06T15:01:07.646Z,24.00
2018-09-06T15:03:36.728Z,23.80
2018-09-06T15:06:05.833Z,23.70
2018-09-06T15:08:35.266Z,23.70
2018-09-06T15:11:04.694Z,23.60
2018-09-06T15:13:33.790Z,23.50
2018-09-06T15:16:02.865Z,23.40
2018-09-06T15:18:31.902Z,23.40
2018-09-06T15:21:00.974Z,23.40
2018-09-06T15:23:30.162Z,23.30
2018-09-06T15:25:59.238Z,23.30
2018-09-06T15:28:28.371Z,23.20
2018-09-06T15:30:57.836Z,23.20
2018-09-06T15:33:26.934Z,23.00
2018-09-06T15:35:56.088Z,23.10
2018-09-06T15:38:25.183Z,23.00
2018-09-06T15:40:54.790Z,22.90
2018-09-06T15:43:23.923Z,22.90
2018-09-06T15:45:54.678Z,22.80
2018-09-06T15:48:24.174Z,22.70
2018-09-06T15:50:53.291Z,22.70
2018-09-06T15:53:22.393Z,22.70
2018-09-06T15:55:51.562Z,22.80
2018-09-06T15:58:20.699Z,22.70
2018-09-06T16:00:49.796Z,22.80
2018-09-06T16:03:18.952Z,22.70
2018-09-06T16:05:48.118Z,22.90
2018-09-06T16:08:17.721Z,22.90
2018-09-06T16:10:46.975Z,22.80
2018-09-06T16:13:16.182Z,22.70
2018-09-06T16:15:45.374Z,22.60
2018-09-06T16:18:15.367Z,22.50
2018-09-06T16:20:44.541Z,22.60
2018-09-06T16:23:13.975Z,22.50
2018-09-06T16:25:43.020Z,22.50
2018-09-06T16:28:12.148Z,22.40
2018-09-06T16:30:41.343Z,22.20
2018-09-06T16:33:10.383Z,22.00
2018-09-06T16:35:39.434Z,21.60
2018-09-06T16:38:08.623Z,20.90
2018-09-06T16:40:37.728Z,20.30
2018-09-06T16:43:06.828Z,19.60
2018-09-06T16:45:35.868Z,19.00
2018-09-06T16:48:05.000Z,18.80
2018-09-06T16:50:34.050Z,18.40
2018-09-06T16:53:03.261Z,18.20
2018-09-06T16:55:32.370Z,17.90
2018-09-06T16:58:01.485Z,17.60
2018-09-06T17:00:30.523Z,17.40
2018-09-06T17:02:59.652Z,17.40
2018-09-06T17:05:28.707Z,17.40
2018-09-06T17:07:57.782Z,17.30
2018-09-06T17:10:26.869Z,17.20
2018-09-06T17:12:56.046Z,17.00
2018-09-06T17:15:25.107Z,17.10
2018-09-06T17:17:54.235Z,17.10
2018-09-06T17:20:23.562Z,17.10
2018-09-06T17:22:52.562Z,17.10
2018-09-06T17:25:21.583Z,17.00
2018-09-06T17:27:50.796Z,17.10
2018-09-06T17:30:19.812Z,17.20
2018-09-06T17:32:48.920Z,17.20
2018-09-06T17:35:17.955Z,17.20
2018-09-06T17:37:46.939Z,17.10
2018-09-06T17:40:16.179Z,17.10
2018-09-06T17:42:45.226Z,17.10
2018-09-06T17:45:14.293Z,17.10
2018-09-06T17:47:43.630Z,17.20
2018-09-06T17:50:12.673Z,17.10
2018-09-06T17:52:41.671Z,17.10
2018-09-06T17:55:10.745Z,17.00
2018-09-06T17:57:39.799Z,17.00
2018-09-06T18:00:09.162Z,17.00
2018-09-06T18:02:38.241Z,16.90
2018-09-06T18:05:07.261Z,16.80
2018-09-06T18:07:36.347Z,16.80
2018-09-06T18:10:05.528Z,16.80
2018-09-06T18:12:34.639Z,16.90
2018-09-06T18:15:03.809Z,16.90
2018-09-06T18:17:33.018Z,16.90
2018-09-06T18:20:02.039Z,16.90
2018-09-06T18:22:31.146Z,16.90
2018-09-06T18:25:00.238Z,16.80
2018-09-06T18:27:29.337Z,16.80
2018-09-06T18:29:58.827Z,16.80
2018-09-06T18:32:27.950Z,16.70
2018-09-06T18:34:57.024Z,16.70
2018-09-06T18:37:26.288Z,16.80
2018-09-06T18:39:55.229Z,16.80
2018-09-06T18:42:24.320Z,16.80
2018-09-06T18:44:53.376Z,16.90
2018-09-06T18:47:22.409Z,17.00
2018-09-06T18:49:51.496Z,17.00
2018-09-06T18:52:20.615Z,17.00
2018-09-06T18:54:49.697Z,17.10
2018-09-06T18:57:18.747Z,17.10
2018-09-06T18:59:47.785Z,17.10
2018-09-06T19:02:16.844Z,16.90
2018-09-06T19:04:45.881Z,16.90
2018-09-06T19:07:14.986Z,17.00
2018-09-06T19:09:44.183Z,16.90
2018-09-06T19:12:13.322Z,16.80
2018-09-06T19:14:42.382Z,16.80
2018-09-06T19:17:11.419Z,16.80
2018-09-06T19:19:40.462Z,16.80
2018-09-06T19:22:09.498Z,16.80
2018-09-06T19:24:38.568Z,16.70
2018-09-06T19:27:07.614Z,16.70
2018-09-06T19:29:36.709Z,16.60
2018-09-06T19:32:05.858Z,16.60
2018-09-06T19:34:35.143Z,16.60
2018-09-06T19:37:04.179Z,16.60
2018-09-06T19:39:33.272Z,16.50
2018-09-06T19:42:02.323Z,16.50
2018-09-06T19:44:31.374Z,16.40
2018-09-06T19:47:00.519Z,16.40
2018-09-06T19:49:34.619Z,16.40
2018-09-06T19:52:03.751Z,16.40
2018-09-06T19:54:32.894Z,16.40
2018-09-06T19:57:03.195Z,16.40
2018-09-06T19:59:32.215Z,16.40
2018-09-06T20:02:01.420Z,16.40
2018-09-06T20:04:30.407Z,16.40
2018-09-06T20:06:59.439Z,16.40
2018-09-06T20:09:28.660Z,16.40
2018-09-06T20:11:57.683Z,16.40
2018-09-06T20:14:26.718Z,16.40
2018-09-06T20:16:55.771Z,16.40
2018-09-06T20:19:24.834Z,16.40
2018-09-06T20:21:54.207Z,16.40
2018-09-06T20:24:23.265Z,16.40
2018-09-06T20:26:52.292Z,16.40
2018-09-06T20:29:21.355Z,16.40
2018-09-06T20:31:50.391Z,16.40
2018-09-06T20:34:19.422Z,16.40
2018-09-06T20:36:48.475Z,16.40
2018-09-06T20:39:17.626Z,16.40
2018-09-06T20:41:46.632Z,16.30
2018-09-06T20:44:15.642Z,16.30
2018-09-06T20:46:44.739Z,16.30
2018-09-06T20:49:13.774Z,16.20
2018-09-06T20:51:42.839Z,16.20
2018-09-06T20:54:12.015Z,16.30
2018-09-06T20:56:41.086Z,16.20
2018-09-06T20:59:10.146Z,16.20
2018-09-06T21:01:39.332Z,16.20
2018-09-06T21:04:08.442Z,16.20
2018-09-06T21:06:37.560Z,16.20
2018-09-06T21:09:07.636Z,16.20
2018-09-06T21:11:36.674Z,16.10
2018-09-06T21:14:06.050Z,16.10
2018-09-06T21:16:35.655Z,16.20
2018-09-06T21:19:10.372Z,16.10
2018-09-06T21:21:45.063Z,16.10
2018-09-06T21:24:19.805Z,16.10
2018-09-06T21:26:54.614Z,16.10
2018-09-06T21:29:29.197Z,16.10
2018-09-06T21:32:04.215Z,16.10
2018-09-06T21:34:38.868Z,16.10
2018-09-06T21:37:13.721Z,16.10
2018-09-06T21:39:48.477Z,16.10
2018-09-06T21:42:23.373Z,16.20
2018-09-06T21:44:58.088Z,16.10
2018-09-06T21:47:32.946Z,16.10
2018-09-06T21:50:07.677Z,16.10
2018-09-06T21:52:42.500Z,16.10
2018-09-06T21:55:17.095Z,16.10
2018-09-06T21:57:51.942Z,16.10
2018-09-06T22:00:26.687Z,16.00
2018-09-06T22:03:06.704Z,16.00
2018-09-06T22:05:41.394Z,16.10
2018-09-06T22:08:16.109Z,16.10
2018-09-06T22:10:50.827Z,16.10
2018-09-06T22:13:25.532Z,16.10
2018-09-06T22:16:00.277Z,16.00
2018-09-06T22:18:34.839Z,15.90
2018-09-06T22:21:09.372Z,15.90
2018-09-06T22:23:44.142Z,15.90
2018-09-06T22:26:18.694Z,16.10
2018-09-06T22:28:53.232Z,16.00
2018-09-06T22:31:27.957Z,16.00
2018-09-06T22:34:02.594Z,16.00
2018-09-06T22:36:37.466Z,16.10
2018-09-06T22:39:11.960Z,16.10
2018-09-06T22:41:46.642Z,16.00
2018-09-06T22:44:21.391Z,16.00
2018-09-06T22:46:56.037Z,16.10
2018-09-06T22:49:30.583Z,16.00
2018-09-06T22:52:05.642Z,16.00
2018-09-06T22:54:40.270Z,16.00
2018-09-06T22:57:14.911Z,16.00
2018-09-06T22:59:49.522Z,16.00
2018-09-06T23:02:27.767Z,15.90
2018-09-06T23:05:02.369Z,16.00
2018-09-06T23:07:36.995Z,15.90
2018-09-06T23:10:11.557Z,15.90
2018-09-06T23:12:46.442Z,15.90
2018-09-06T23:15:21.062Z,15.90
2018-09-06T23:17:55.843Z,15.90
2018-09-06T23:20:30.475Z,15.80
2018-09-06T23:23:05.019Z,15.80
2018-09-06T23:25:39.802Z,15.80
2018-09-06T23:28:14.390Z,15.90
2018-09-06T23:30:48.990Z,15.80
2018-09-06T23:33:23.685Z,15.90
2018-09-06T23:35:58.286Z,15.80
2018-09-06T23:38:32.975Z,15.80
2018-09-06T23:41:07.536Z,15.80
2018-09-06T23:43:42.218Z,15.80
2018-09-06T23:46:16.994Z,15.80
2018-09-06T23:48:51.483Z,15.70
2018-09-06T23:51:26.249Z,15.70
2018-09-06T23:54:00.934Z,15.60
2018-09-06T23:56:35.643Z,15.60
2018-09-06T23:59:10.318Z,15.50
